Time,TemperatureF,DewpointF,PressureIn,WindDirection,WindDirectionDegrees,WindSpeedMPH,WindSpeedGustMPH,Humidity,HourlyPrecipIn,Conditions,Clouds,dailyrainin,SoftwareType,DateUTC
2013-09-21 01:27:00,64.0,56.3,29.85,South,185,0.0,0.0,76,0.00,,,0.00,meteobridge,2013-09-21 08:27:00,
2013-09-21 01:48:00,64.0,56.3,29.85,ESE,113,0.0,0.9,76,0.00,,,0.00,meteobridge,2013-09-21 08:48:00,
2013-09-21 02:19:00,64.0,56.7,29.84,ESE,117,0.9,2.0,77,0.00,,,0.00,meteobridge,2013-09-21 09:19:00,
2013-09-21 05:49:00,63.9,57.9,29.83,SW,216,2.9,4.9,81,0.00,,,0.00,meteobridge,2013-09-21 12:49:00,
2013-09-21 05:59:00,63.9,58.3,29.83,SSW,208,4.9,8.1,82,0.00,,,0.00,meteobridge,2013-09-21 12:59:00,
2013-09-21 07:55:00,61.3,57.2,29.85,WSW,253,2.0,2.0,86,0.00,,,0.00,meteobridge,2013-09-21 14:55:00,
2013-09-21 08:05:00,61.5,57.4,29.85,WSW,248,0.0,0.9,86,0.00,,,0.00,meteobridge,2013-09-21 15:05:00,
2013-09-21 08:26:00,63.0,57.7,29.85,SW,236,0.0,0.0,83,0.00,,,0.00,meteobridge,2013-09-21 15:26:00,
2013-09-21 17:11:00,62.8,55.0,29.85,SW,230,4.0,10.1,76,0.00,,,0.27,meteobridge,2013-09-22 00:11:00,
2013-09-21 17:13:00,62.8,55.4,29.84,West,268,6.0,8.9,77,0.00,,,0.27,meteobridge,2013-09-22 00:13:00,
2013-09-21 17:15:00,62.6,55.6,29.84,West,274,6.0,6.9,78,0.00,,,0.27,meteobridge,2013-09-22 00:15:00,
2013-09-21 17:17:00,62.8,55.8,29.84,West,266,0.9,8.1,78,0.00,,,0.27,meteobridge,2013-09-22 00:17:00,
2013-09-21 17:23:00,63.1,55.4,29.84,West,280,8.9,14.1,76,0.00,,,0.27,meteobridge,2013-09-22 00:23:00,
2013-09-21 17:29:00,63.0,55.2,29.85,WSW,250,8.9,10.1,76,0.00,,,0.27,meteobridge,2013-09-22 00:29:00,
2013-09-21 17:35:00,62.8,55.0,29.85,West,273,8.1,8.1,76,0.00,,,0.27,meteobridge,2013-09-22 00:35:00,
2013-09-21 20:19:00,59.4,53.8,29.89,WSW,255,0.0,0.9,82,0.00,,,0.27,meteobridge,2013-09-22 03:19:00,
2013-09-21 20:25:00,59.4,53.8,29.89,WSW,244,0.0,2.0,82,0.00,,,0.27,meteobridge,2013-09-22 03:25:00,
2013-09-21 20:31:00,59.4,54.1,29.89,SW,225,2.0,4.0,83,0.00,,,0.27,meteobridge,2013-09-22 03:31:00,
2013-09-21 20:37:00,59.4,54.1,29.89,SW,224,6.0,6.0,83,0.00,,,0.27,meteobridge,2013-09-22 03:37:00,
2013-09-21 20:43:00,59.4,54.1,29.89,SW,231,4.0,6.9,83,0.00,,,0.27,meteobridge,2013-09-22 03:43:00,
2013-09-21 20:49:00,59.5,54.3,29.89,WSW,240,0.9,4.9,83,0.00,,,0.27,meteobridge,2013-09-22 03:49:00,
2013-09-21 20:55:00,59.5,54.3,29.89,West,278,2.0,4.9,83,0.00,,,0.27,meteobridge,2013-09-22 03:55:00,
2013-09-21 21:01:00,59.5,54.3,29.90,West,269,2.9,6.9,83,0.00,,,0.27,meteobridge,2013-09-22 04:01:00,
2013-09-21 21:03:00,59.5,54.3,29.90,WSW,252,6.9,8.1,83,0.00,,,0.27,meteobridge,2013-09-22 04:03:00,
2013-09-21 21:05:00,59.5,54.3,29.90,West,276,4.0,6.0,83,0.00,,,0.27,meteobridge,2013-09-22 04:05:00,
2013-09-21 21:07:00,59.5,54.3,29.90,West,270,4.0,8.1,83,0.00,,,0.27,meteobridge,2013-09-22 04:07:00,
2013-09-21 21:13:00,59.5,54.7,29.90,West,272,2.0,6.0,84,0.00,,,0.27,meteobridge,2013-09-22 04:13:00,
2013-09-21 21:19:00,59.4,54.5,29.90,West,260,6.0,8.9,84,0.00,,,0.27,meteobridge,2013-09-22 04:19:00,
2013-09-21 21:25:00,59.4,54.5,29.90,WNW,285,4.0,11.0,84,0.00,,,0.27,meteobridge,2013-09-22 04:25:00,
2013-09-21 21:29:00,59.4,54.9,29.90,SW,224,4.0,8.1,85,0.00,,,0.27,meteobridge,2013-09-22 04:29:00,
2013-09-21 21:35:00,59.2,54.7,29.90,SW,231,6.0,11.0,85,0.00,,,0.27,meteobridge,2013-09-22 04:35:00,
2013-09-21 21:41:00,59.2,54.7,29.90,WSW,245,4.0,8.1,85,0.00,,,0.27,meteobridge,2013-09-22 04:41:00,
2013-09-21 21:48:00,59.2,54.7,29.90,West,281,2.9,8.1,85,0.00,,,0.27,meteobridge,2013-09-22 04:48:00,
2013-09-21 21:54:00,59.0,54.5,29.90,West,279,2.0,6.0,85,0.00,,,0.27,meteobridge,2013-09-22 04:54:00,
2013-09-21 22:00:00,58.8,54.7,29.90,WSW,240,2.9,8.1,86,0.00,,,0.27,meteobridge,2013-09-22 05:00:00,
2013-09-21 22:06:00,58.6,54.5,29.90,NW,305,0.9,2.9,86,0.00,,,0.27,meteobridge,2013-09-22 05:06:00,
2013-09-21 22:12:00,58.6,54.9,29.90,WSW,241,8.1,8.9,87,0.00,,,0.27,meteobridge,2013-09-22 05:12:00,
2013-09-21 22:18:00,58.6,54.5,29.90,WSW,250,0.0,2.0,86,0.00,,,0.27,meteobridge,2013-09-22 05:18:00,
2013-09-21 22:24:00,58.6,54.9,29.90,WNW,299,0.0,2.9,87,0.00,,,0.27,meteobridge,2013-09-22 05:24:00,
2013-09-21 22:30:00,58.5,54.7,29.91,West,277,2.0,4.9,87,0.00,,,0.27,meteobridge,2013-09-22 05:30:00,
2013-09-21 22:36:00,58.5,54.7,29.91,WNW,288,0.0,2.9,87,0.00,,,0.27,meteobridge,2013-09-22 05:36:00,
2013-09-21 22:43:00,58.1,54.5,29.91,NW,307,0.0,2.0,88,0.00,,,0.27,meteobridge,2013-09-22 05:43:00,
2013-09-21 22:49:00,57.7,54.1,29.91,NW,308,0.0,0.0,88,0.00,,,0.27,meteobridge,2013-09-22 05:49:00,
2013-09-21 22:55:00,57.4,54.1,29.91,NW,308,0.0,0.0,89,0.00,,,0.27,meteobridge,2013-09-22 05:55:00,
2013-09-21 23:01:00,57.4,54.1,29.91,WSW,245,0.0,0.0,89,0.00,,,0.27,meteobridge,2013-09-22 06:01:00,
2013-09-21 23:07:00,57.2,54.3,29.91,WSW,245,0.0,0.9,90,0.00,,,0.27,meteobridge,2013-09-22 06:07:00,
2013-09-21 23:13:00,56.8,54.0,29.91,WNW,297,0.9,0.9,90,0.00,,,0.27,meteobridge,2013-09-22 06:13:00,
2013-09-21 23:20:00,56.8,54.3,29.91,WSW,237,2.9,6.0,91,0.00,,,0.27,meteobridge,2013-09-22 06:20:00,
2013-09-21 23:26:00,57.4,54.5,29.91,SW,226,2.9,6.0,90,0.00,,,0.27,meteobridge,2013-09-22 06:26:00,
2013-09-21 23:32:00,57.7,54.5,29.91,WSW,252,2.0,4.9,89,0.00,,,0.27,meteobridge,2013-09-22 06:32:00,
2013-09-21 23:38:00,57.7,54.5,29.91,WSW,258,4.0,6.9,89,0.00,,,0.27,meteobridge,2013-09-22 06:38:00,
2013-09-21 23:44:00,57.9,54.7,29.91,WSW,245,2.0,4.9,89,0.00,,,0.27,meteobridge,2013-09-22 06:44:00,
2013-09-21 23:50:00,57.9,54.7,29.91,SW,221,2.9,6.9,89,0.00,,,0.27,meteobridge,2013-09-22 06:50:00,
2013-09-21 23:56:00,57.9,54.7,29.92,SW,224,2.0,6.0,89,0.00,,,0.27,meteobridge,2013-09-22 06:56:00,